sensor_id;sensor_type;location;lat;lon;timestamp;pressure;altitude;pressure_sealevel;temperature;humidity
46614;BME280;32338;50.430;6.806;2023-06-14T00:01:48;66962.88;;;14.11;98.21
46614;BME280;32338;50.430;6.806;2023-06-14T00:04:15;66944.94;;;13.97;99.95
46614;BME280;32338;50.430;6.806;2023-06-14T00:06:44;66944.75;;;13.94;99.65
46614;BME280;32338;50.430;6.806;2023-06-14T00:09:12;66936.09;;;13.91;97.55
46614;BME280;32338;50.430;6.806;2023-06-14T00:11:39;66936.47;;;13.89;99.75
46614;BME280;32338;50.430;6.806;2023-06-14T00:14:06;66939.13;;;13.89;100.00
46614;BME280;32338;50.430;6.806;2023-06-14T00:16:33;66937.78;;;13.86;100.00
46614;BME280;32338;50.430;6.806;2023-06-14T00:19:00;66929.50;;;13.81;100.00
46614;BME280;32338;50.430;6.806;2023-06-14T00:21:28;66926.88;;;13.81;100.00
46614;BME280;32338;50.430;6.806;2023-06-14T00:23:55;66930.09;;;13.81;100.00
46614;BME280;32338;50.430;6.806;2023-06-14T00:26:23;66921.63;;;13.73;100.00
46614;BME280;32338;50.430;6.806;2023-06-14T00:28:51;66921.03;;;13.73;100.00
46614;BME280;32338;50.430;6.806;2023-06-14T00:31:18;66913.69;;;13.66;100.00
46614;BME280;32338;50.430;6.806;2023-06-14T00:33:45;66906.53;;;13.62;100.00
46614;BME280;32338;50.430;6.806;2023-06-14T00:36:11;66892.03;;;13.44;100.00
46614;BME280;32338;50.430;6.806;2023-06-14T00:38:38;66889.78;;;13.42;100.00
46614;BME280;32338;50.430;6.806;2023-06-14T00:41:04;66880.00;;;13.38;100.00
46614;BME280;32338;50.430;6.806;2023-06-14T00:43:32;66884.50;;;13.42;100.00
46614;BME280;32338;50.430;6.806;2023-06-14T00:46:00;66886.38;;;13.39;100.00
46614;BME280;32338;50.430;6.806;2023-06-14T00:48:27;66876.00;;;13.34;100.00
46614;BME280;32338;50.430;6.806;2023-06-14T00:50:54;66874.31;;;13.33;100.00
46614;BME280;32338;50.430;6.806;2023-06-14T00:53:21;66866.81;;;13.23;100.00
46614;BME280;32338;50.430;6.806;2023-06-14T00:55:48;66864.72;;;13.24;100.00
46614;BME280;32338;50.430;6.806;2023-06-14T00:58:15;66861.13;;;13.18;100.00
46614;BME280;32338;50.430;6.806;2023-06-14T01:00:43;66862.25;;;13.12;100.00
46614;BME280;32338;50.430;6.806;2023-06-14T01:03:10;66847.59;;;13.06;100.00
46614;BME280;32338;50.430;6.806;2023-06-14T01:05:38;66847.59;;;13.06;100.00
46614;BME280;32338;50.430;6.806;2023-06-14T01:08:13;66822.38;;;12.85;100.00
46614;BME280;32338;50.430;6.806;2023-06-14T01:10:52;66825.00;;;12.85;100.00
46614;BME280;32338;50.430;6.806;2023-06-14T01:13:21;66819.91;;;12.80;100.00
46614;BME280;32338;50.430;6.806;2023-06-14T01:15:52;66820.50;;;12.81;100.00
46614;BME280;32338;50.430;6.806;2023-06-14T01:18:19;66829.69;;;12.92;100.00
46614;BME280;32338;50.430;6.806;2023-06-14T01:20:47;66826.31;;;12.81;100.00
46614;BME280;32338;50.430;6.806;2023-06-14T01:23:16;66819.00;;;12.82;100.00
46614;BME280;32338;50.430;6.806;2023-06-14T01:25:42;66784.00;;;12.50;100.00
46614;BME280;32338;50.430;6.806;2023-06-14T01:28:10;66787.75;;;12.51;100.00
46614;BME280;32338;50.430;6.806;2023-06-14T01:30:39;66776.84;;;12.39;100.00
46614;BME280;32338;50.430;6.806;2023-06-14T01:33:11;66785.13;;;12.51;100.00
46614;BME280;32338;50.430;6.806;2023-06-14T01:35:38;66766.69;;;12.37;100.00
46614;BME280;32338;50.430;6.806;2023-06-14T01:38:06;66775.34;;;12.40;100.00
46614;BME280;32338;50.430;6.806;2023-06-14T01:40:34;66780.03;;;12.46;100.00
46614;BME280;32338;50.430;6.806;2023-06-14T01:43:02;66784.94;;;12.48;100.00
46614;BME280;32338;50.430;6.806;2023-06-14T01:45:30;66792.44;;;12.58;100.00
46614;BME280;32338;50.430;6.806;2023-06-14T01:47:58;66795.06;;;12.58;100.00
46614;BME280;32338;50.430;6.806;2023-06-14T01:50:28;66794.53;;;12.57;100.00
46614;BME280;32338;50.430;6.806;2023-06-14T01:52:54;66795.06;;;12.58;100.00
46614;BME280;32338;50.430;6.806;2023-06-14T01:55:21;66793.38;;;12.56;100.00
46614;BME280;32338;50.430;6.806;2023-06-14T01:57:51;66780.59;;;12.47;100.00
46614;BME280;32338;50.430;6.806;2023-06-14T02:00:18;66781.53;;;12.45;100.00
46614;BME280;32338;50.430;6.806;2023-06-14T02:02:45;66779.09;;;12.41;100.00
46614;BME280;32338;50.430;6.806;2023-06-14T02:05:12;66773.25;;;12.40;100.00
46614;BME280;32338;50.430;6.806;2023-06-14T02:07:38;66779.84;;;12.44;100.00
46614;BME280;32338;50.430;6.806;2023-06-14T02:10:05;66772.88;;;12.35;100.00
46614;BME280;32338;50.430;6.806;2023-06-14T02:12:32;66761.41;;;12.29;100.00
46614;BME280;32338;50.430;6.806;2023-06-14T02:15:00;66755.94;;;12.27;100.00
46614;BME280;32338;50.430;6.806;2023-06-14T02:17:27;66755.75;;;12.24;100.00
46614;BME280;32338;50.430;6.806;2023-06-14T02:19:53;66732.84;;;12.06;100.00
46614;BME280;32338;50.430;6.806;2023-06-14T02:22:21;66739.59;;;12.05;100.00
46614;BME280;32338;50.430;6.806;2023-06-14T02:24:47;66731.88;;;12.00;100.00
46614;BME280;32338;50.430;6.806;2023-06-14T02:27:15;66717.19;;;11.87;100.00
46614;BME280;32338;50.430;6.806;2023-06-14T02:29:42;66710.41;;;11.80;100.00
46614;BME280;32338;50.430;6.806;2023-06-14T02:32:10;66687.66;;;11.57;100.00
46614;BME280;32338;50.430;6.806;2023-06-14T02:34:36;66690.50;;;11.67;100.00
46614;BME280;32338;50.430;6.806;2023-06-14T02:37:06;66703.44;;;11.72;100.00
46614;BME280;32338;50.430;6.806;2023-06-14T02:39:32;66709.31;;;11.79;100.00
46614;BME280;32338;50.430;6.806;2023-06-14T02:41:59;66718.13;;;11.85;100.00
46614;BME280;32338;50.430;6.806;2023-06-14T02:44:26;66725.84;;;11.90;100.00
46614;BME280;32338;50.430;6.806;2023-06-14T02:46:53;66715.13;;;11.87;100.00
46614;BME280;32338;50.430;6.806;2023-06-14T02:49:22;66725.09;;;11.94;100.00
46614;BME280;32338;50.430;6.806;2023-06-14T02:51:48;66723.56;;;11.88;100.00
46614;BME280;32338;50.430;6.806;2023-06-14T02:54:15;66713.22;;;11.83;100.00
46614;BME280;32338;50.430;6.806;2023-06-14T02:56:41;66708.91;;;11.81;100.00
46614;BME280;32338;50.430;6.806;2023-06-14T02:59:08;66710.06;;;11.82;100.00
46614;BME280;32338;50.430;6.806;2023-06-14T03:01:35;66705.53;;;11.78;100.00
46614;BME280;32338;50.430;6.806;2023-06-14T03:04:06;66708.91;;;11.81;100.00
46614;BME280;32338;50.430;6.806;2023-06-14T03:06:34;66710.41;;;11.80;100.00
46614;BME280;32338;50.430;6.806;2023-06-14T03:09:02;66703.28;;;11.76;100.00
46614;BME280;32338;50.430;6.806;2023-06-14T03:11:30;66700.81;;;11.72;100.00
46614;BME280;32338;50.430;6.806;2023-06-14T03:13:56;66697.44;;;11.68;100.00
46614;BME280;32338;50.430;6.806;2023-06-14T03:16:23;66697.44;;;11.68;100.00
46614;BME280;32338;50.430;6.806;2023-06-14T03:18:51;66696.91;;;11.68;100.00
46614;BME280;32338;50.430;6.806;2023-06-14T03:21:18;66703.25;;;11.69;100.00
46614;BME280;32338;50.430;6.806;2023-06-14T03:23:47;66691.81;;;11.63;100.00
46614;BME280;32338;50.430;6.806;2023-06-14T03:26:14;66685.78;;;11.60;100.00
46614;BME280;32338;50.430;6.806;2023-06-14T03:28:43;66695.94;;;11.62;100.00
46614;BME280;32338;50.430;6.806;2023-06-14T03:31:09;66687.88;;;11.60;100.00
46614;BME280;32338;50.430;6.806;2023-06-14T03:33:36;66692.38;;;11.64;100.00
46614;BME280;32338;50.430;6.806;2023-06-14T03:36:03;66678.09;;;11.56;100.00
46614;BME280;32338;50.430;6.806;2023-06-14T03:38:30;66688.81;;;11.58;100.00
46614;BME280;32338;50.430;6.806;2023-06-14T03:40:58;66688.22;;;11.58;100.00
46614;BME280;32338;50.430;6.806;2023-06-14T03:43:24;66682.97;;;11.58;100.00
46614;BME280;32338;50.430;6.806;2023-06-14T03:45:51;66681.09;;;11.54;100.00
46614;BME280;32338;50.430;6.806;2023-06-14T03:48:17;66679.03;;;11.54;100.00
46614;BME280;32338;50.430;6.806;2023-06-14T03:50:44;66679.41;;;11.52;100.00
46614;BME280;32338;50.430;6.806;2023-06-14T03:53:11;66674.88;;;11.48;100.00
46614;BME280;32338;50.430;6.806;2023-06-14T03:55:37;66676.41;;;11.47;100.00
46614;BME280;32338;50.430;6.806;2023-06-14T03:58:06;66671.50;;;11.45;100.00
46614;BME280;32338;50.430;6.806;2023-06-14T04:00:32;66676.94;;;11.47;100.00
46614;BME280;32338;50.430;6.806;2023-06-14T04:02:59;66671.88;;;11.43;100.00
46614;BME280;32338;50.430;6.806;2023-06-14T04:05:26;66667.38;;;11.39;100.00
46614;BME280;32338;50.430;6.806;2023-06-14T04:07:52;66668.31;;;11.44;100.00
46614;BME280;32338;50.430;6.806;2023-06-14T04:10:21;66667.00;;;11.41;100.00
46614;BME280;32338;50.430;6.806;2023-06-14T04:12:47;66667.56;;;11.41;100.00
46614;BME280;32338;50.430;6.806;2023-06-14T04:15:15;66665.88;;;11.40;100.00
46614;BME280;32338;50.430;6.806;2023-06-14T04:17:42;66670.94;;;11.44;100.00
46614;BME280;32338;50.430;6.806;2023-06-14T04:20:08;66664.19;;;11.38;100.00
46614;BME280;32338;50.430;6.806;2023-06-14T04:22:36;66661.72;;;11.33;100.00
46614;BME280;32338;50.430;6.806;2023-06-14T04:25:03;66661.38;;;11.35;100.00
46614;BME280;32338;50.430;6.806;2023-06-14T04:27:31;66664.94;;;11.41;100.00
46614;BME280;32338;50.430;6.806;2023-06-14T04:30:01;66656.84;;;11.31;100.00
46614;BME280;32338;50.430;6.806;2023-06-14T04:32:29;66657.41;;;11.32;100.00
46614;BME280;32338;50.430;6.806;2023-06-14T04:34:58;66665.69;;;11.37;100.00
46614;BME280;32338;50.430;6.806;2023-06-14T04:37:27;66664.19;;;11.38;100.00
46614;BME280;32338;50.430;6.806;2023-06-14T04:39:55;66671.50;;;11.45;100.00
46614;BME280;32338;50.430;6.806;2023-06-14T04:42:22;66678.84;;;11.51;100.00
46614;BME280;32338;50.430;6.806;2023-06-14T04:44:50;66684.84;;;11.55;100.00
46614;BME280;32338;50.430;6.806;2023-06-14T04:47:21;66682.78;;;11.55;100.00
46614;BME280;32338;50.430;6.806;2023-06-14T04:49:49;66685.25;;;11.60;100.00
46614;BME280;32338;50.430;6.806;2023-06-14T04:52:19;66695.56;;;11.64;100.00
46614;BME280;32338;50.430;6.806;2023-06-14T04:54:46;66696.69;;;11.65;100.00
46614;BME280;32338;50.430;6.806;2023-06-14T04:57:12;66695.19;;;11.66;100.00
46614;BME280;32338;50.430;6.806;2023-06-14T04:59:42;66692.19;;;11.61;100.00
46614;BME280;32338;50.430;6.806;2023-06-14T05:02:09;66683.91;;;11.56;100.00
46614;BME280;32338;50.430;6.806;2023-06-14T05:04:37;66695.38;;;11.69;100.00
46614;BME280;32338;50.430;6.806;2023-06-14T05:07:06;66708.72;;;11.79;100.00
46614;BME280;32338;50.430;6.806;2023-06-14T05:09:33;66705.75;;;11.81;100.00
46614;BME280;32338;50.430;6.806;2023-06-14T05:11:59;66714.16;;;11.81;100.00
46614;BME280;32338;50.430;6.806;2023-06-14T05:14:26;66702.72;;;11.76;100.00
46614;BME280;32338;50.430;6.806;2023-06-14T05:16:53;66693.69;;;11.67;100.00
46614;BME280;32338;50.430;6.806;2023-06-14T05:19:19;66689.75;;;11.64;100.00
46614;BME280;32338;50.430;6.806;2023-06-14T05:21:47;66689.16;;;11.56;100.00
46614;BME280;32338;50.430;6.806;2023-06-14T05:24:15;66697.25;;;11.66;100.00
46614;BME280;32338;50.430;6.806;2023-06-14T05:26:42;66695.56;;;11.64;100.00
46614;BME280;32338;50.430;6.806;2023-06-14T05:29:08;66703.44;;;11.72;100.00
46614;BME280;32338;50.430;6.806;2023-06-14T05:31:35;66717.19;;;11.87;100.00
46614;BME280;32338;50.430;6.806;2023-06-14T05:34:02;66745.97;;;12.13;100.00
46614;BME280;32338;50.430;6.806;2023-06-14T05:36:28;66759.91;;;12.23;100.00
46614;BME280;32338;50.430;6.806;2023-06-14T05:38:55;66745.97;;;12.13;100.00
46614;BME280;32338;50.430;6.806;2023-06-14T05:41:24;66740.53;;;12.10;100.00
46614;BME280;32338;50.430;6.806;2023-06-14T05:43:51;66734.69;;;12.03;100.00
46614;BME280;32338;50.430;6.806;2023-06-14T05:46:18;66736.19;;;12.02;100.00
46614;BME280;32338;50.430;6.806;2023-06-14T05:48:47;66732.66;;;12.03;100.00
46614;BME280;32338;50.430;6.806;2023-06-14T05:51:13;66744.47;;;12.14;100.00
46614;BME280;32338;50.430;6.806;2023-06-14T05:53:44;66752.94;;;12.22;100.00
46614;BME280;32338;50.430;6.806;2023-06-14T05:56:10;66767.25;;;12.30;100.00
46614;BME280;32338;50.430;6.806;2023-06-14T05:58:38;66777.22;;;12.44;100.00
46614;BME280;32338;50.430;6.806;2023-06-14T06:01:05;66790.94;;;12.52;100.00
46614;BME280;32338;50.430;6.806;2023-06-14T06:03:31;66796.03;;;12.56;100.00
46614;BME280;32338;50.430;6.806;2023-06-14T06:05:58;66801.50;;;12.66;100.00
46614;BME280;32338;50.430;6.806;2023-06-14T06:08:25;66815.03;;;12.78;100.00
46614;BME280;32338;50.430;6.806;2023-06-14T06:10:52;66831.03;;;12.88;100.00
46614;BME280;32338;50.430;6.806;2023-06-14T06:13:18;66843.44;;;13.00;100.00
46614;BME280;32338;50.430;6.806;2023-06-14T06:15:46;66859.84;;;13.14;100.00
46614;BME280;32338;50.430;6.806;2023-06-14T06:18:13;66867.00;;;13.26;100.00
46614;BME280;32338;50.430;6.806;2023-06-14T06:20:40;66877.69;;;13.36;100.00
46614;BME280;32338;50.430;6.806;2023-06-14T06:23:06;66887.72;;;13.42;100.00
46614;BME280;32338;50.430;6.806;2023-06-14T06:25:35;66902.78;;;13.54;100.00
46614;BME280;32338;50.430;6.806;2023-06-14T06:28:02;66910.50;;;13.66;100.00
46614;BME280;32338;50.430;6.806;2023-06-14T06:30:29;66919.53;;;13.74;100.00
46614;BME280;32338;50.430;6.806;2023-06-14T06:32:57;66936.69;;;13.85;100.00
46614;BME280;32338;50.430;6.806;2023-06-14T06:35:24;66946.28;;;13.93;100.00
46614;BME280;32338;50.430;6.806;2023-06-14T06:37:51;66952.69;;;14.02;100.00
46614;BME280;32338;50.430;6.806;2023-06-14T06:40:17;66960.97;;;14.14;100.00
46614;BME280;32338;50.430;6.806;2023-06-14T06:42:44;66974.53;;;14.26;100.00
46614;BME280;32338;50.430;6.806;2023-06-14T06:45:12;66984.91;;;14.31;100.00
46614;BME280;32338;50.430;6.806;2023-06-14T06:47:38;67007.50;;;14.52;100.00
46614;BME280;32338;50.430;6.806;2023-06-14T06:50:07;67023.38;;;14.66;100.00
46614;BME280;32338;50.430;6.806;2023-06-14T06:52:34;67030.34;;;14.75;100.00
46614;BME280;32338;50.430;6.806;2023-06-14T06:55:01;67049.00;;;14.92;100.00
46614;BME280;32338;50.430;6.806;2023-06-14T06:57:28;67062.97;;;15.02;100.00
46614;BME280;32338;50.430;6.806;2023-06-14T06:59:55;67071.63;;;15.13;100.00
46614;BME280;32338;50.430;6.806;2023-06-14T07:02:21;67078.59;;;15.21;100.00
46614;BME280;32338;50.430;6.806;2023-06-14T07:04:48;67098.03;;;15.34;100.00
46614;BME280;32338;50.430;6.806;2023-06-14T07:07:17;67125.56;;;15.64;100.00
46614;BME280;32338;50.430;6.806;2023-06-14T07:09:43;67127.25;;;15.66;100.00
46614;BME280;32338;50.430;6.806;2023-06-14T07:12:11;67145.56;;;15.78;100.00
46614;BME280;32338;50.430;6.806;2023-06-14T07:14:38;67154.81;;;15.88;100.00
46614;BME280;32338;50.430;6.806;2023-06-14T07:17:04;67167.84;;;16.00;100.00
46614;BME280;32338;50.430;6.806;2023-06-14T07:19:31;67184.63;;;16.13;100.00
46614;BME280;32338;50.430;6.806;2023-06-14T07:21:58;67193.13;;;16.21;100.00
46614;BME280;32338;50.430;6.806;2023-06-14T07:24:26;67202.75;;;16.30;100.00
46614;BME280;32338;50.430;6.806;2023-06-14T07:26:53;67213.88;;;16.45;100.00
46614;BME280;32338;50.430;6.806;2023-06-14T07:29:20;67229.75;;;16.52;100.00
46614;BME280;32338;50.430;6.806;2023-06-14T07:31:47;67237.84;;;16.62;100.00
46614;BME280;32338;50.430;6.806;2023-06-14T07:34:14;67244.84;;;16.70;100.00
46614;BME280;32338;50.430;6.806;2023-06-14T07:36:40;67259.38;;;16.81;100.00
46614;BME280;32338;50.430;6.806;2023-06-14T07:39:09;67274.53;;;16.93;100.00
46614;BME280;32338;50.430;6.806;2023-06-14T07:41:38;67273.19;;;16.96;100.00
46614;BME280;32338;50.430;6.806;2023-06-14T07:44:04;67284.13;;;17.09;100.00
46614;BME280;32338;50.430;6.806;2023-06-14T07:46:31;67297.53;;;17.18;100.00
46614;BME280;32338;50.430;6.806;2023-06-14T07:48:59;67306.59;;;17.27;98.50
46614;BME280;32338;50.430;6.806;2023-06-14T07:51:26;67320.59;;;17.37;99.32
46614;BME280;32338;50.430;6.806;2023-06-14T07:53:53;67329.66;;;17.45;98.82
46614;BME280;32338;50.430;6.806;2023-06-14T07:56:19;67328.31;;;17.49;93.77
46614;BME280;32338;50.430;6.806;2023-06-14T07:58:48;67340.03;;;17.57;91.38
46614;BME280;32338;50.430;6.806;2023-06-14T08:01:14;67348.53;;;17.65;92.79
46614;BME280;32338;50.430;6.806;2023-06-14T08:03:42;67356.84;;;17.70;88.43
46614;BME280;32338;50.430;6.806;2023-06-14T08:06:08;67363.28;;;17.78;91.00
46614;BME280;32338;50.430;6.806;2023-06-14T08:08:35;67368.75;;;17.81;92.40
46614;BME280;32338;50.430;6.806;2023-06-14T08:11:02;67386.53;;;17.99;95.75
46614;BME280;32338;50.430;6.806;2023-06-14T08:13:28;67405.06;;;18.14;93.06
46614;BME280;32338;50.430;6.806;2023-06-14T08:15:56;67399.56;;;18.11;84.15
46614;BME280;32338;50.430;6.806;2023-06-14T08:18:23;67404.50;;;18.13;91.38
46614;BME280;32338;50.430;6.806;2023-06-14T08:20:50;67409.78;;;18.21;90.18
46614;BME280;32338;50.430;6.806;2023-06-14T08:23:17;67423.78;;;18.31;91.46
46614;BME280;32338;50.430;6.806;2023-06-14T08:25:46;67432.47;;;18.41;89.46
46614;BME280;32338;50.430;6.806;2023-06-14T08:28:12;67439.06;;;18.52;88.99
46614;BME280;32338;50.430;6.806;2023-06-14T08:30:39;67440.78;;;18.46;79.28
46614;BME280;32338;50.430;6.806;2023-06-14T08:33:07;67432.66;;;18.44;80.29
46614;BME280;32338;50.430;6.806;2023-06-14T08:35:33;67445.34;;;18.51;84.23
46614;BME280;32338;50.430;6.806;2023-06-14T08:38:02;67448.19;;;18.53;83.70
46614;BME280;32338;50.430;6.806;2023-06-14T08:40:30;67473.69;;;18.76;84.93
46614;BME280;32338;50.430;6.806;2023-06-14T08:42:57;67480.50;;;18.83;82.89
46614;BME280;32338;50.430;6.806;2023-06-14T08:45:24;67488.81;;;18.95;81.16
46614;BME280;32338;50.430;6.806;2023-06-14T08:47:51;67500.16;;;19.05;81.71
46614;BME280;32338;50.430;6.806;2023-06-14T08:50:24;67512.88;;;19.12;77.45
46614;BME280;32338;50.430;6.806;2023-06-14T08:52:57;67525.53;;;19.26;81.16
46614;BME280;32338;50.430;6.806;2023-06-14T08:55:26;67534.59;;;19.34;78.90
46614;BME280;32338;50.430;6.806;2023-06-14T08:57:54;67498.28;;;19.01;74.44
46614;BME280;32338;50.430;6.806;2023-06-14T09:00:23;67476.69;;;18.82;71.54
46614;BME280;32338;50.430;6.806;2023-06-14T09:02:49;67494.91;;;18.98;77.05
46614;BME280;32338;50.430;6.806;2023-06-14T09:05:23;67486.56;;;18.86;70.05
46614;BME280;32338;50.430;6.806;2023-06-14T09:07:50;67497.16;;;19.00;76.23
46614;BME280;32338;50.430;6.806;2023-06-14T09:10:18;67517.59;;;19.19;75.11
46614;BME280;32338;50.430;6.806;2023-06-14T09:12:45;67531.59;;;19.29;77.14
46614;BME280;32338;50.430;6.806;2023-06-14T09:15:12;67557.69;;;19.53;74.40
46614;BME280;32338;50.430;6.806;2023-06-14T09:17:39;67563.38;;;19.58;71.31
46614;BME280;32338;50.430;6.806;2023-06-14T09:20:08;67576.44;;;19.70;74.55
46614;BME280;32338;50.430;6.806;2023-06-14T09:22:37;67576.63;;;19.72;69.07
46614;BME280;32338;50.430;6.806;2023-06-14T09:25:05;67586.81;;;19.82;69.35
46614;BME280;32338;50.430;6.806;2023-06-14T09:27:32;67592.13;;;19.89;72.49
46614;BME280;32338;50.430;6.806;2023-06-14T09:30:01;67603.31;;;19.97;69.59
46614;BME280;32338;50.430;6.806;2023-06-14T09:32:27;67607.88;;;20.01;67.73
46614;BME280;32338;50.430;6.806;2023-06-14T09:34:54;67616.59;;;20.04;69.89
46614;BME280;32338;50.430;6.806;2023-06-14T09:37:28;67619.22;;;20.11;66.08
46614;BME280;32338;50.430;6.806;2023-06-14T09:39:57;67622.78;;;20.17;69.02
46614;BME280;32338;50.430;6.806;2023-06-14T09:42:24;67600.88;;;19.92;61.24
46614;BME280;32338;50.430;6.806;2023-06-14T09:44:54;67588.94;;;19.81;64.74
46614;BME280;32338;50.430;6.806;2023-06-14T09:47:22;67592.34;;;19.84;66.46
46614;BME280;32338;50.430;6.806;2023-06-14T09:49:49;67618.88;;;20.06;70.80
46614;BME280;32338;50.430;6.806;2023-06-14T09:52:18;67634.91;;;20.30;67.08
46614;BME280;32338;50.430;6.806;2023-06-14T09:54:46;67652.34;;;20.44;67.07
46614;BME280;32338;50.430;6.806;2023-06-14T09:57:15;67655.97;;;20.42;64.42
46614;BME280;32338;50.430;6.806;2023-06-14T09:59:43;67658.22;;;20.44;66.00
46614;BME280;32338;50.430;6.806;2023-06-14T10:02:17;67667.16;;;20.50;62.83
46614;BME280;32338;50.430;6.806;2023-06-14T10:04:48;67665.03;;;20.50;66.97
46614;BME280;32338;50.430;6.806;2023-06-14T10:07:19;67668.63;;;20.56;65.48
46614;BME280;32338;50.430;6.806;2023-06-14T10:09:47;67670.72;;;20.55;66.93
46614;BME280;32338;50.430;6.806;2023-06-14T10:12:17;67656.69;;;20.45;62.55
46614;BME280;32338;50.430;6.806;2023-06-14T10:14:49;67660.84;;;20.51;69.18
46614;BME280;32338;50.430;6.806;2023-06-14T10:17:23;67669.19;;;20.56;59.97
46614;BME280;32338;50.430;6.806;2023-06-14T10:19:56;67671.31;;;20.56;61.64
46614;BME280;32338;50.430;6.806;2023-06-14T10:22:30;67681.31;;;20.70;63.58
46614;BME280;32338;50.430;6.806;2023-06-14T10:24:57;67693.66;;;20.79;60.48
46614;BME280;32338;50.430;6.806;2023-06-14T10:27:25;67685.69;;;20.71;59.47
46614;BME280;32338;50.430;6.806;2023-06-14T10:30:07;67714.13;;;20.97;66.75
46614;BME280;32338;50.430;6.806;2023-06-14T10:32:34;67715.81;;;20.99;61.13
46614;BME280;32338;50.430;6.806;2023-06-14T10:35:05;67729.06;;;21.13;63.33
46614;BME280;32338;50.430;6.806;2023-06-14T10:37:32;67737.41;;;21.18;60.31
46614;BME280;32338;50.430;6.806;2023-06-14T10:39:58;67732.84;;;21.14;59.32
46614;BME280;32338;50.430;6.806;2023-06-14T10:42:31;67744.63;;;21.22;60.58
46614;BME280;32338;50.430;6.806;2023-06-14T10:44:58;67758.06;;;21.40;62.88
46614;BME280;32338;50.430;6.806;2023-06-14T10:47:27;67753.91;;;21.33;59.68
46614;BME280;32338;50.430;6.806;2023-06-14T10:49:55;67752.53;;;21.37;59.29
46614;BME280;32338;50.430;6.806;2023-06-14T10:52:26;67744.81;;;21.25;57.03
46614;BME280;32338;50.430;6.806;2023-06-14T10:55:05;67734.34;;;21.20;51.39
46614;BME280;32338;50.430;6.806;2023-06-14T10:57:36;67722.41;;;21.10;53.35
46614;BME280;32338;50.430;6.806;2023-06-14T11:00:05;67756.91;;;21.38;57.93
46614;BME280;32338;50.430;6.806;2023-06-14T11:05:31;67746.66;;;21.29;53.49
46614;BME280;32338;50.430;6.806;2023-06-14T11:08:27;67735.13;;;21.16;53.37
46614;BME280;32338;50.430;6.806;2023-06-14T11:11:00;67762.81;;;21.39;56.64
46614;BME280;32338;50.430;6.806;2023-06-14T11:13:29;67779.66;;;21.59;52.34
46614;BME280;32338;50.430;6.806;2023-06-14T11:15:56;67799.41;;;21.75;58.83
46614;BME280;32338;50.430;6.806;2023-06-14T11:18:24;67800.34;;;21.73;54.55
46614;BME280;32338;50.430;6.806;2023-06-14T11:20:53;67777.41;;;21.57;50.71
46614;BME280;32338;50.430;6.806;2023-06-14T11:23:21;67809.06;;;21.83;50.54
46614;BME280;32338;50.430;6.806;2023-06-14T11:25:50;67820.03;;;21.96;57.89
46614;BME280;32338;50.430;6.806;2023-06-14T11:28:16;67813.44;;;21.85;49.74
46614;BME280;32338;50.430;6.806;2023-06-14T11:30:46;67815.66;;;21.94;50.87
46614;BME280;32338;50.430;6.806;2023-06-14T11:33:16;67817.00;;;21.91;50.55
46614;BME280;32338;50.430;6.806;2023-06-14T11:35:43;67831.97;;;22.07;52.92
46614;BME280;32338;50.430;6.806;2023-06-14T11:38:10;67840.75;;;22.10;51.51
46614;BME280;32338;50.430;6.806;2023-06-14T11:40:38;67839.19;;;22.11;51.06
46614;BME280;32338;50.430;6.806;2023-06-14T11:43:04;67883.34;;;22.56;53.90
46614;BME280;32338;50.430;6.806;2023-06-14T11:45:31;67897.41;;;22.66;50.88
46614;BME280;32338;50.430;6.806;2023-06-14T11:47:59;67869.38;;;22.38;49.06
46614;BME280;32338;50.430;6.806;2023-06-14T11:50:27;67929.50;;;22.90;58.68
46614;BME280;32338;50.430;6.806;2023-06-14T11:52:54;67909.38;;;22.77;51.59
46614;BME280;32338;50.430;6.806;2023-06-14T11:55:21;67903.84;;;22.74;48.95
46614;BME280;32338;50.430;6.806;2023-06-14T11:57:48;67907.06;;;22.75;52.77
46614;BME280;32338;50.430;6.806;2023-06-14T12:00:15;67910.50;;;22.78;47.50
46614;BME280;32338;50.430;6.806;2023-06-14T12:02:43;67896.13;;;22.62;51.38
46614;BME280;32338;50.430;6.806;2023-06-14T12:05:11;67945.59;;;23.07;51.08
46614;BME280;32338;50.430;6.806;2023-06-14T12:07:37;67900.66;;;22.66;49.75
46614;BME280;32338;50.430;6.806;2023-06-14T12:10:06;67901.63;;;22.65;47.73
46614;BME280;32338;50.430;6.806;2023-06-14T12:12:35;67928.53;;;22.92;44.95
46614;BME280;32338;50.430;6.806;2023-06-14T12:15:03;67949.19;;;23.13;48.61
46614;BME280;32338;50.430;6.806;2023-06-14T12:17:32;67990.59;;;23.48;54.51
46614;BME280;32338;50.430;6.806;2023-06-14T12:19:59;67937.81;;;23.03;46.60
46614;BME280;32338;50.430;6.806;2023-06-14T12:22:28;67950.00;;;23.09;46.92
46614;BME280;32338;50.430;6.806;2023-06-14T12:24:55;67931.16;;;22.99;48.03
46614;BME280;32338;50.430;6.806;2023-06-14T12:27:22;67968.19;;;23.33;49.36
46614;BME280;32338;50.430;6.806;2023-06-14T12:30:01;67931.00;;;22.96;47.66
46614;BME280;32338;50.430;6.806;2023-06-14T12:32:28;67954.34;;;23.18;52.03
46614;BME280;32338;50.430;6.806;2023-06-14T12:34:54;68000.06;;;23.61;49.55
46614;BME280;32338;50.430;6.806;2023-06-14T12:37:21;68028.94;;;23.85;49.47
46614;BME280;32338;50.430;6.806;2023-06-14T12:39:49;68001.59;;;23.60;46.93
46614;BME280;32338;50.430;6.806;2023-06-14T12:42:16;68034.03;;;23.90;45.85
46614;BME280;32338;50.430;6.806;2023-06-14T12:44:43;68013.56;;;23.71;47.10
46614;BME280;32338;50.430;6.806;2023-06-14T12:47:10;67962.13;;;23.22;45.36
46614;BME280;32338;50.430;6.806;2023-06-14T12:49:39;68012.25;;;23.68;49.67
46614;BME280;32338;50.430;6.806;2023-06-14T12:52:07;68008.59;;;23.69;48.96
46614;BME280;32338;50.430;6.806;2023-06-14T12:54:34;67944.88;;;23.04;44.31
46614;BME280;32338;50.430;6.806;2023-06-14T12:57:02;67928.16;;;22.94;45.69
46614;BME280;32338;50.430;6.806;2023-06-14T12:59:29;67966.69;;;23.26;51.86
46614;BME280;32338;50.430;6.806;2023-06-14T13:01:59;67904.59;;;22.77;47.24